Time;durP1;ratioP1;P1;durP2;ratioP2;P2;SDS_P1;SDS_P2;PMS_P1;PMS_P2;Temp;Humidity;BMP_temperature;BMP_pressure;BME280_temperature;BME280_humidity;BME280_pressure;Samples;Min_cycle;Max_cycle;Signal;HPM_P1;HPM_P2
2022/09/20 00:02:59;;;;;;;10.80;4.20;;;;;;;9.30;84.92;98310.48;434337;1264;97881;-40
2022/09/20 00:13:09;;;;;;;5.20;3.90;;;;;;;9.33;84.94;98317.26;434053;1265;111123;-40
2022/09/20 00:23:17;;;;;;;5.20;4.00;;;;;;;9.34;84.99;98324.14;434474;1265;108811;-41
2022/09/20 00:35:06;;;;;;;6.20;4.80;;;;;;;9.34;85.14;98331.89;434846;1265;97764;-40
2022/09/20 00:43:54;;;;;;;5.70;5.10;;;;;;;9.30;85.33;98334.19;434254;1265;111327;-38
2022/09/20 00:54:07;;;;;;;5.60;4.40;;;;;;;9.24;85.20;98327.92;434221;1264;109368;-38
2022/09/20 01:04:16;;;;;;;4.70;4.30;;;;;;;9.21;85.17;98327.46;434707;1265;96803;-38
2022/09/20 01:14:25;;;;;;;8.10;4.50;;;;;;;9.23;85.31;98327.90;434222;1265;111165;-40
2022/09/20 01:24:43;;;;;;;4.80;4.30;;;;;;;9.28;85.43;98332.98;434280;1265;109031;-40
2022/09/20 01:34:54;;;;;;;5.20;3.80;;;;;;;9.29;85.32;98334.05;434906;1255;97139;-39
2022/09/20 01:45:01;;;;;;;7.30;3.80;;;;;;;9.33;85.41;98327.39;434592;1264;108794;-39
2022/09/20 01:55:51;;;;;;;5.80;4.90;;;;;;;9.33;85.54;98324.11;434238;1265;96647;-39
2022/09/20 02:06:07;;;;;;;8.60;5.60;;;;;;;9.22;85.58;98328.72;433789;1268;97490;-39
2022/09/20 02:16:20;;;;;;;5.90;5.00;;;;;;;9.12;85.56;98332.28;434326;1265;111223;-39
2022/09/20 02:26:31;;;;;;;5.50;4.90;;;;;;;9.13;85.63;98333.98;434348;1265;108788;-39
2022/09/20 02:36:39;;;;;;;5.00;4.50;;;;;;;9.15;85.74;98341.84;434153;1264;97280;-44
2022/09/20 02:46:45;;;;;;;5.00;4.50;;;;;;;9.22;85.92;98346.02;434297;1265;107756;-39
2022/09/20 02:56:58;;;;;;;6.60;5.10;;;;;;;9.25;85.93;98351.33;434446;1263;96637;-40
2022/09/20 03:07:11;;;;;;;6.40;4.90;;;;;;;9.33;86.09;98363.32;434341;1265;111010;-39
2022/09/20 03:17:17;;;;;;;5.90;5.10;;;;;;;9.43;86.26;98364.17;434081;1264;108717;-39
2022/09/20 03:27:23;;;;;;;7.60;5.90;;;;;;;9.49;86.24;98361.80;434397;1264;98171;-39
2022/09/20 03:37:34;;;;;;;6.80;5.80;;;;;;;9.54;86.26;98367.36;434237;1264;108946;-39
2022/09/20 03:47:57;;;;;;;8.70;7.80;;;;;;;9.56;86.30;98369.52;434503;1264;98030;-40
2022/09/20 03:58:10;;;;;;;14.70;10.20;;;;;;;9.45;86.47;98373.95;434318;1263;97915;-40
2022/09/20 04:08:18;;;;;;;12.20;9.20;;;;;;;9.38;86.31;98374.15;433606;1266;110214;-41
2022/09/20 04:18:31;;;;;;;12.30;9.10;;;;;;;9.42;86.47;98387.81;434092;1264;108843;-41
2022/09/20 04:28:36;;;;;;;13.80;8.40;;;;;;;9.47;86.45;98396.84;434329;1265;97495;-40
2022/09/20 04:38:47;;;;;;;12.70;7.00;;;;;;;9.47;86.67;98400.71;434417;1265;108812;-41
2022/09/20 04:49:30;;;;;;;10.50;7.80;;;;;;;9.53;86.61;98403.45;434272;1264;98153;-41
2022/09/20 04:59:36;;;;;;;10.80;7.50;;;;;;;9.58;86.74;98415.91;434429;1265;111119;-41
2022/09/20 05:10:25;;;;;;;12.60;10.10;;;;;;;9.64;86.73;98417.30;434270;1265;108795;-40
2022/09/20 05:20:47;;;;;;;8.50;6.80;;;;;;;9.71;86.88;98430.20;433921;1266;97875;-41
2022/09/20 05:41:05;;;;;;;10.30;7.60;;;;;;;9.85;86.84;98449.13;434274;1264;97878;-40
2022/09/20 05:51:18;;;;;;;8.30;6.00;;;;;;;9.80;86.70;98451.16;434468;1265;97490;-41
2022/09/20 06:01:26;;;;;;;7.10;4.90;;;;;;;9.80;86.56;98458.73;434286;1265;111430;-41
2022/09/20 06:12:03;;;;;;;5.80;4.10;;;;;;;9.87;86.52;98465.14;434654;1267;108888;-41
2022/09/20 06:22:11;;;;;;;5.20;4.10;;;;;;;10.03;86.60;98469.02;433809;1265;533241;-41
2022/09/20 06:42:24;;;;;;;15.10;6.90;;;;;;;10.38;86.52;98481.67;433894;1265;96660;-40
2022/09/20 06:52:34;;;;;;;7.50;6.50;;;;;;;10.28;86.47;98490.27;434370;1264;111667;-39
2022/09/20 07:02:41;;;;;;;10.10;6.60;;;;;;;10.22;86.40;98499.65;434113;1265;108867;-39
2022/09/20 07:12:48;;;;;;;6.90;5.70;;;;;;;10.30;86.31;98504.63;434085;1265;98590;-40
2022/09/20 07:22:55;;;;;;;7.10;4.90;;;;;;;10.33;86.20;98515.17;434683;1265;111346;-41
2022/09/20 07:33:02;;;;;;;5.30;4.30;;;;;;;10.32;86.19;98529.31;433992;1264;108872;-41
2022/09/20 07:43:10;;;;;;;6.90;4.80;;;;;;;10.28;86.20;98540.60;434337;1264;98587;-41
2022/09/20 07:53:17;;;;;;;7.40;6.70;;;;;;;10.20;86.24;98550.45;434216;1264;111181;-41
2022/09/20 08:03:25;;;;;;;7.90;5.80;;;;;;;10.41;86.34;98558.23;434345;1265;108966;-41
2022/09/20 08:13:35;;;;;;;6.20;5.60;;;;;;;10.54;86.09;98567.55;434663;1265;97523;-40
2022/09/20 08:24:02;;;;;;;6.40;5.30;;;;;;;10.52;85.88;98567.19;434225;1265;110964;-41
2022/09/20 08:34:13;;;;;;;8.80;6.40;;;;;;;10.76;86.07;98576.71;434172;1264;108873;-41
2022/09/20 08:44:26;;;;;;;8.50;6.40;;;;;;;10.81;86.12;98581.73;434267;1265;97466;-41
2022/09/20 09:04:42;;;;;;;7.70;4.60;;;;;;;11.33;86.03;98587.48;434210;1265;108740;-40
2022/09/20 09:14:51;;;;;;;6.00;4.00;;;;;;;11.96;85.96;98585.91;434185;1265;98617;-40
2022/09/20 09:25:21;;;;;;;5.50;5.00;;;;;;;12.32;85.34;98592.30;434226;1265;108910;-38
2022/09/20 09:35:31;;;;;;;7.30;4.90;;;;;;;12.39;84.96;98593.10;434311;1265;97502;-38
2022/09/20 09:45:39;;;;;;;7.90;4.70;;;;;;;12.46;84.82;98589.75;434141;1265;97913;-39
2022/09/20 09:56:02;;;;;;;4.90;3.90;;;;;;;12.72;84.38;98591.35;434491;1264;108648;-39
2022/09/20 10:06:10;;;;;;;9.00;3.90;;;;;;;12.83;84.07;98591.45;433925;1265;97507;-39
2022/09/20 10:16:19;;;;;;;5.40;3.10;;;;;;;13.02;83.35;98588.81;434267;1265;98201;-41
2022/09/20 10:26:47;;;;;;;6.30;3.00;;;;;;;13.13;82.80;98590.09;434092;1265;111126;-39
2022/09/20 10:36:57;;;;;;;2.20;1.80;;;;;;;13.21;82.15;98585.89;434359;1265;108655;-40
2022/09/20 10:47:07;;;;;;;4.10;3.50;;;;;;;13.66;82.04;98585.13;434123;1265;96626;-40
2022/09/20 10:57:47;;;;;;;6.50;3.60;;;;;;;13.65;80.77;98589.48;434261;1265;111091;-40
2022/09/20 11:07:58;;;;;;;3.90;2.60;;;;;;;13.59;79.88;98599.56;434155;1265;109575;-39
2022/09/20 11:18:04;;;;;;;4.40;2.30;;;;;;;13.89;79.76;98602.16;434564;1265;97885;-40
2022/09/20 11:28:14;;;;;;;3.30;2.50;;;;;;;14.20;79.24;98601.73;434528;1264;111335;-40
2022/09/20 11:38:20;;;;;;;5.80;2.70;;;;;;;13.97;77.77;98609.23;434327;1264;108462;-40
2022/09/20 11:48:34;;;;;;;2.60;2.00;;;;;;;13.89;77.24;98613.63;434561;1267;108807;-40
2022/09/20 11:58:47;;;;;;;5.80;3.30;;;;;;;13.91;76.89;98616.09;434176;1265;97937;-40
2022/09/20 12:08:56;;;;;;;5.20;2.60;;;;;;;13.98;76.53;98618.98;434252;1265;111199;-41
2022/09/20 12:19:01;;;;;;;4.40;2.50;;;;;;;14.19;76.40;98615.55;434092;1265;108896;-40
2022/09/20 12:39:34;;;;;;;4.90;3.20;;;;;;;13.56;75.65;98618.23;434152;1265;109786;-40
2022/09/20 13:00:33;;;;;;;5.40;3.90;;;;;;;13.24;76.18;98617.80;435141;1264;108810;-41
2022/09/20 13:20:49;;;;;;;6.50;2.60;;;;;;;13.90;76.10;98595.56;434289;1265;108827;-40
2022/09/20 13:31:27;;;;;;;2.80;2.40;;;;;;;14.27;75.45;98594.45;434082;1265;109122;-40
2022/09/20 13:51:41;;;;;;;2.80;2.50;;;;;;;13.47;74.89;98610.48;434301;1265;110961;-38
2022/09/20 14:01:51;;;;;;;5.30;2.50;;;;;;;13.44;74.86;98607.41;434230;1265;108679;-39
2022/09/20 14:12:00;;;;;;;3.60;2.10;;;;;;;13.74;74.67;98603.81;434607;1265;98354;-39
2022/09/20 14:22:08;;;;;;;3.80;2.30;;;;;;;13.94;73.99;98606.14;434161;1265;111073;-40
2022/09/20 14:32:23;;;;;;;2.30;2.00;;;;;;;13.98;74.02;98612.13;434167;1265;108216;-40
2022/09/20 14:42:29;;;;;;;2.70;1.90;;;;;;;13.83;73.55;98613.09;434442;1265;97874;-39
2022/09/20 14:52:38;;;;;;;7.40;3.90;;;;;;;13.71;72.97;98616.20;434160;1265;111079;-40
2022/09/20 15:02:48;;;;;;;4.20;2.30;;;;;;;13.46;72.47;98626.03;434026;1265;109946;-41
2022/09/20 15:12:54;;;;;;;5.50;2.30;;;;;;;13.18;72.56;98625.64;434066;1265;107356;-41
2022/09/20 15:23:01;;;;;;;6.40;3.30;;;;;;;13.09;72.81;98634.27;433954;1265;97874;-41
2022/09/20 15:33:10;;;;;;;4.80;3.10;;;;;;;13.00;73.08;98635.20;434607;1265;108766;-41
2022/09/20 15:43:20;;;;;;;4.80;4.00;;;;;;;12.95;73.24;98640.06;434528;1265;97884;-40
2022/09/20 15:53:29;;;;;;;6.80;5.10;;;;;;;12.87;73.21;98652.06;434458;1265;111297;-40
2022/09/20 16:03:36;;;;;;;;;;;;;;;12.78;73.39;98659.99;434137;1265;108811;-40
2022/09/20 16:13:44;;;;;;;11.30;8.60;;;;;;;12.60;73.75;98665.02;433696;1267;97553;-40
2022/09/20 16:23:59;;;;;;;13.40;9.30;;;;;;;12.25;73.99;98680.69;434017;1265;110556;-45
2022/09/20 16:34:07;;;;;;;19.80;9.10;;;;;;;11.87;74.25;98692.60;433923;1265;108704;-42
2022/09/20 16:44:15;;;;;;;13.10;7.70;;;;;;;11.58;74.44;98701.61;433924;1265;108809;-41
2022/09/20 16:54:23;;;;;;;16.60;8.90;;;;;;;11.36;74.78;98716.75;433581;1265;97555;-41
2022/09/20 17:04:37;;;;;;;14.00;11.20;;;;;;;11.13;75.24;98738.37;433857;1264;110056;-41
2022/09/20 17:14:45;;;;;;;13.00;9.00;;;;;;;10.83;75.60;98748.63;434072;1266;97878;-41
2022/09/20 17:24:52;;;;;;;21.90;11.70;;;;;;;10.50;75.80;98757.80;434438;1264;96736;-41
2022/09/20 17:34:59;;;;;;;34.30;19.40;;;;;;;10.21;76.06;98762.19;433976;1265;108760;-41
2022/09/20 17:45:08;;;;;;;32.50;20.60;;;;;;;9.96;76.33;98770.02;434211;1265;97503;-40
2022/09/20 17:55:16;;;;;;;27.60;17.30;;;;;;;9.85;76.88;98789.91;434375;1265;111433;-41
2022/09/20 18:05:23;;;;;;;19.90;12.90;;;;;;;9.75;77.30;98792.80;434622;1264;108857;-41
2022/09/20 18:15:31;;;;;;;20.60;12.00;;;;;;;9.65;77.55;98804.43;434215;1265;97885;-41
2022/09/20 18:36:01;;;;;;;15.90;10.80;;;;;;;10.00;78.33;98832.70;434266;1265;108790;-40
2022/09/20 18:46:08;;;;;;;18.10;11.60;;;;;;;10.08;78.24;98844.81;434134;1265;97981;-41
2022/09/20 18:56:21;;;;;;;12.90;7.70;;;;;;;10.00;78.26;98858.43;433991;1265;111092;-42
2022/09/20 19:06:36;;;;;;;10.20;5.30;;;;;;;9.81;78.15;98858.97;434279;1265;108983;-41
2022/09/20 19:26:47;;;;;;;6.50;3.80;;;;;;;9.62;78.45;98848.14;434202;1265;110112;-40
2022/09/20 19:37:04;;;;;;;8.30;5.10;;;;;;;9.59;79.01;98840.61;434336;1264;108781;-40
2022/09/20 19:47:14;;;;;;;5.20;2.90;;;;;;;9.48;79.16;98864.27;434057;1266;97475;-40
2022/09/20 19:57:22;;;;;;;5.70;3.20;;;;;;;9.23;79.35;98868.98;434200;1264;110993;-40
2022/09/20 20:07:36;;;;;;;6.10;3.50;;;;;;;9.19;79.65;98880.33;434121;1266;108952;-40
2022/09/20 20:17:47;;;;;;;7.70;4.40;;;;;;;9.22;79.82;98886.96;434249;1264;97917;-41
2022/09/20 20:27:54;;;;;;;8.30;3.10;;;;;;;9.29;79.93;98890.06;434114;1265;111185;-40
2022/09/20 20:38:04;;;;;;;4.20;3.00;;;;;;;9.30;80.04;98889.39;434150;1264;108996;-39
2022/09/20 20:48:11;;;;;;;9.00;4.30;;;;;;;9.23;80.32;98894.48;434350;1265;97624;-40
2022/09/20 20:58:18;;;;;;;7.00;3.50;;;;;;;9.20;80.39;98900.00;434567;1263;110644;-40
2022/09/20 21:08:29;;;;;;;7.10;4.00;;;;;;;9.27;80.54;98905.83;434357;1265;108953;-40
2022/09/20 21:18:38;;;;;;;7.30;2.90;;;;;;;9.33;80.70;98908.33;434163;1265;98168;-42
2022/09/20 21:28:47;;;;;;;4.30;2.70;;;;;;;9.42;80.84;98908.66;433949;1265;107880;-41
2022/09/20 21:38:55;;;;;;;13.50;5.90;;;;;;;9.32;80.86;98919.73;434264;1264;98593;-41
2022/09/20 21:49:04;;;;;;;20.10;8.60;;;;;;;9.15;81.05;98919.20;434546;1265;97885;-41
2022/09/20 21:59:12;;;;;;;12.60;7.50;;;;;;;9.01;80.99;98917.60;434138;1264;111828;-41
2022/09/20 22:09:20;;;;;;;9.10;5.60;;;;;;;8.95;81.27;98921.71;433912;1265;107803;-40
2022/09/20 22:19:27;;;;;;;12.80;6.70;;;;;;;8.99;81.43;98918.30;433995;1265;97480;-41
2022/09/20 22:29:34;;;;;;;14.00;6.90;;;;;;;9.06;81.53;98919.20;433928;1265;108740;-41
2022/09/20 22:39:41;;;;;;;7.80;6.40;;;;;;;9.03;81.66;98919.42;434102;1265;97477;-40
2022/09/20 22:49:48;;;;;;;10.80;6.90;;;;;;;8.92;81.78;98915.86;434225;1264;111220;-40
2022/09/20 22:59:56;;;;;;;15.10;8.10;;;;;;;8.70;81.93;98918.54;433889;1264;108584;-42
2022/09/20 23:10:03;;;;;;;7.80;6.20;;;;;;;8.47;81.84;98922.19;434429;1264;97474;-40
2022/09/20 23:20:09;;;;;;;7.50;5.40;;;;;;;8.44;82.18;98923.58;434086;1265;108950;-40
2022/09/20 23:30:16;;;;;;;7.50;5.60;;;;;;;8.48;82.29;98927.86;434166;1264;96670;-40
2022/09/20 23:40:24;;;;;;;9.70;5.90;;;;;;;8.50;82.43;98933.54;434071;1265;111108;-39
2022/09/20 23:50:31;;;;;;;7.30;5.30;;;;;;;8.47;82.44;98938.28;434028;1265;108806;-39
